createdAt,value
2019-05-28T00:01:45.159Z,11.56
2019-05-28T00:04:10.937Z,11.39
2019-05-28T00:06:36.739Z,11.42
2019-05-28T00:09:05.508Z,11.29
2019-05-28T00:11:31.309Z,11.15
2019-05-28T00:13:57.092Z,11.11
2019-05-28T00:16:22.892Z,11.09
2019-05-28T00:18:50.823Z,10.99
2019-05-28T00:21:16.622Z,10.44
2019-05-28T00:23:42.412Z,10.84
2019-05-28T00:26:08.203Z,10.83
2019-05-28T00:28:33.981Z,10.77
2019-05-28T00:30:59.769Z,10.65
2019-05-28T00:33:25.560Z,10.68
2019-05-28T00:35:51.340Z,10.64
2019-05-28T00:38:17.144Z,10.59
2019-05-28T00:40:42.936Z,10.49
2019-05-28T00:43:08.726Z,10.50
2019-05-28T00:45:34.504Z,10.44
2019-05-28T00:48:00.308Z,10.40
2019-05-28T00:50:26.079Z,10.38
2019-05-28T00:52:51.968Z,10.39
2019-05-28T00:55:17.840Z,10.32
2019-05-28T00:57:44.833Z,10.21
2019-05-28T01:00:11.304Z,10.20
2019-05-28T01:02:37.075Z,10.14
2019-05-28T01:05:04.591Z,10.14
2019-05-28T01:07:30.411Z,10.05
2019-05-28T01:09:56.200Z,10.07
2019-05-28T01:12:22.046Z,10.11
2019-05-28T01:14:47.842Z,10.03
2019-05-28T01:17:13.663Z,10.03
2019-05-28T01:19:39.445Z,10.02
2019-05-28T01:22:05.239Z,10.06
2019-05-28T01:24:31.049Z,10.04
2019-05-28T01:26:56.835Z,10.09
2019-05-28T01:29:22.636Z,10.09
2019-05-28T01:31:48.423Z,10.11
2019-05-28T01:35:09.903Z,10.15
2019-05-28T01:37:35.722Z,10.17
2019-05-28T01:40:04.213Z,10.16
2019-05-28T01:42:30.024Z,10.12
2019-05-28T01:44:55.839Z,10.21
2019-05-28T01:47:21.620Z,10.16
2019-05-28T01:49:47.427Z,10.21
2019-05-28T01:52:13.210Z,10.12
2019-05-28T01:54:39.009Z,10.09
2019-05-28T01:57:04.799Z,10.00
2019-05-28T01:59:30.599Z,9.93
2019-05-28T02:01:56.383Z,9.88
2019-05-28T02:04:22.188Z,9.79
2019-05-28T02:06:47.994Z,9.77
2019-05-28T02:09:13.790Z,9.73
2019-05-28T02:11:39.594Z,9.72
2019-05-28T02:14:05.417Z,9.68
2019-05-28T02:16:31.253Z,9.66
2019-05-28T02:18:57.126Z,9.68
2019-05-28T02:21:22.936Z,9.68
2019-05-28T02:23:48.770Z,9.63
2019-05-28T02:26:14.553Z,9.58
2019-05-28T02:28:40.351Z,9.62
2019-05-28T02:31:06.148Z,9.54
2019-05-28T02:33:31.957Z,9.57
2019-05-28T02:35:57.772Z,9.49
2019-05-28T02:38:23.550Z,9.47
2019-05-28T02:40:49.357Z,9.46
2019-05-28T02:43:15.166Z,9.39
2019-05-28T02:45:40.998Z,9.39
2019-05-28T02:48:06.888Z,9.47
2019-05-28T02:50:54.400Z,9.54
2019-05-28T02:53:20.492Z,9.67
2019-05-28T02:55:46.707Z,9.76
2019-05-28T02:58:13.627Z,9.72
2019-05-28T03:00:41.531Z,9.72
2019-05-28T03:03:09.444Z,9.75
2019-05-28T03:05:36.056Z,9.70
2019-05-28T03:08:02.574Z,9.64
2019-05-28T03:10:59.852Z,9.62
2019-05-28T03:13:04.280Z,9.61
2019-05-28T03:15:32.674Z,9.60
2019-05-28T03:17:58.593Z,9.53
2019-05-28T03:20:24.587Z,9.53
2019-05-28T03:22:50.770Z,9.57
2019-05-28T03:25:17.545Z,9.44
2019-05-28T03:27:43.360Z,9.36
2019-05-28T03:30:09.798Z,9.34
2019-05-28T03:32:35.687Z,9.33
2019-05-28T03:35:02.835Z,9.31
2019-05-28T03:37:29.229Z,9.35
2019-05-28T03:39:56.427Z,9.35
2019-05-28T03:42:22.234Z,9.33
2019-05-28T03:44:48.022Z,9.26
2019-05-28T03:47:13.830Z,9.25
2019-05-28T03:49:39.612Z,9.25
2019-05-28T03:52:05.411Z,9.28
2019-05-28T03:54:31.194Z,9.22
2019-05-28T03:56:56.993Z,9.21
2019-05-28T03:59:22.773Z,9.19
2019-05-28T04:01:48.581Z,9.18
2019-05-28T04:04:14.367Z,9.33
2019-05-28T04:06:40.179Z,9.35
2019-05-28T04:09:06.861Z,9.33
2019-05-28T04:11:44.304Z,9.34
2019-05-28T04:14:01.100Z,9.34
2019-05-28T04:16:26.900Z,9.41
2019-05-28T04:18:52.689Z,9.42
2019-05-28T04:21:18.518Z,9.49
2019-05-28T04:23:44.330Z,9.51
2019-05-28T04:26:10.118Z,9.49
2019-05-28T04:28:36.018Z,9.48
2019-05-28T04:31:01.798Z,9.40
2019-05-28T04:33:27.602Z,9.47
2019-05-28T04:35:53.410Z,9.41
2019-05-28T04:38:19.236Z,9.38
2019-05-28T04:40:45.028Z,9.42
2019-05-28T04:43:10.844Z,9.42
2019-05-28T04:45:36.655Z,9.51
2019-05-28T04:48:02.667Z,9.53
2019-05-28T04:50:28.472Z,9.57
2019-05-28T04:52:54.295Z,9.51
2019-05-28T04:55:20.107Z,9.59
2019-05-28T04:57:45.904Z,9.66
2019-05-28T05:00:11.886Z,9.60
2019-05-28T05:02:37.672Z,9.68
2019-05-28T05:05:05.971Z,9.70
2019-05-28T05:07:31.770Z,9.75
2019-05-28T05:09:57.572Z,9.76
2019-05-28T05:12:23.350Z,9.72
2019-05-28T05:14:49.184Z,9.79
2019-05-28T05:17:14.961Z,9.83
2019-05-28T05:19:40.794Z,9.93
2019-05-28T05:22:06.578Z,9.98
2019-05-28T05:24:32.418Z,9.84
2019-05-28T05:26:58.224Z,10.00
2019-05-28T05:29:24.020Z,10.02
2019-05-28T05:31:49.825Z,10.01
2019-05-28T05:34:15.641Z,10.05
2019-05-28T05:36:41.433Z,10.00
2019-05-28T05:39:07.335Z,10.14
2019-05-28T05:41:33.129Z,10.28
2019-05-28T05:43:58.951Z,10.32
2019-05-28T05:46:24.734Z,10.29
2019-05-28T05:48:50.539Z,10.36
2019-05-28T05:51:16.330Z,10.45
2019-05-28T05:53:42.132Z,10.59
2019-05-28T05:56:08.052Z,10.63
2019-05-28T05:58:33.854Z,10.54
2019-05-28T06:00:59.638Z,10.50
2019-05-28T06:03:39.943Z,10.55
2019-05-28T06:05:53.136Z,10.69
2019-05-28T06:08:18.926Z,10.71
2019-05-28T06:10:44.725Z,10.71
2019-05-28T06:13:10.532Z,10.64
2019-05-28T06:15:36.348Z,10.70
2019-05-28T06:18:02.276Z,10.99
2019-05-28T06:20:28.172Z,11.32
2019-05-28T06:22:53.973Z,11.60
2019-05-28T06:25:19.780Z,11.73
2019-05-28T06:27:45.597Z,11.94
2019-05-28T06:30:11.496Z,11.66
2019-05-28T06:32:38.546Z,11.62
2019-05-28T06:35:04.618Z,11.46
2019-05-28T06:37:30.403Z,11.34
2019-05-28T06:39:56.231Z,11.34
2019-05-28T06:42:22.049Z,11.33
2019-05-28T06:44:47.843Z,11.34
2019-05-28T06:47:13.783Z,11.35
2019-05-28T06:49:39.575Z,11.32
2019-05-28T06:52:06.125Z,11.55
2019-05-28T06:54:31.927Z,11.86
2019-05-28T06:56:57.723Z,12.16
2019-05-28T06:59:23.513Z,12.31
2019-05-28T07:01:49.326Z,12.28
2019-05-28T07:04:31.409Z,12.55
2019-05-28T07:06:42.835Z,12.72
2019-05-28T07:09:08.671Z,12.82
2019-05-28T07:11:34.539Z,12.79
2019-05-28T07:14:00.315Z,12.73
2019-05-28T07:16:26.126Z,12.71
2019-05-28T07:18:51.914Z,12.49
2019-05-28T07:21:17.710Z,12.89
2019-05-28T07:23:43.783Z,12.91
2019-05-28T07:26:09.657Z,12.73
2019-05-28T07:28:35.447Z,13.04
2019-05-28T07:31:01.263Z,13.42
2019-05-28T07:33:27.059Z,13.90
2019-05-28T07:35:52.862Z,14.18
2019-05-28T07:38:18.669Z,14.46
2019-05-28T07:40:44.489Z,14.67
2019-05-28T07:43:10.314Z,14.73
2019-05-28T07:45:36.098Z,14.62
2019-05-28T07:48:03.853Z,14.72
2019-05-28T07:50:29.651Z,15.62
2019-05-28T07:52:55.449Z,15.57
2019-05-28T07:55:21.248Z,14.83
2019-05-28T07:57:47.038Z,14.08
2019-05-28T08:00:13.243Z,13.36
2019-05-28T08:02:39.169Z,13.08
2019-05-28T08:05:05.351Z,12.89
2019-05-28T08:07:31.151Z,12.68
2019-05-28T08:09:56.958Z,12.62
2019-05-28T08:12:22.762Z,12.56
2019-05-28T08:14:48.547Z,12.64
2019-05-28T08:17:14.467Z,12.65
2019-05-28T08:19:40.258Z,12.39
2019-05-28T08:22:06.154Z,12.32
2019-05-28T08:24:31.965Z,12.47
2019-05-28T08:26:57.751Z,12.41
2019-05-28T08:29:23.553Z,12.35
2019-05-28T08:31:49.353Z,12.54
2019-05-28T08:34:19.165Z,12.83
2019-05-28T08:36:42.941Z,12.93
2019-05-28T08:39:08.950Z,13.28
2019-05-28T08:41:34.950Z,13.17
2019-05-28T08:44:00.777Z,13.15
2019-05-28T08:46:26.572Z,12.93
2019-05-28T08:48:52.379Z,12.70
2019-05-28T08:51:18.166Z,12.76
2019-05-28T08:53:43.977Z,12.74
2019-05-28T08:56:09.770Z,12.77
2019-05-28T08:58:35.670Z,12.53
2019-05-28T09:01:01.484Z,12.45
2019-05-28T09:03:27.286Z,12.48
2019-05-28T09:05:53.085Z,12.65
2019-05-28T09:08:19.016Z,12.89
2019-05-28T09:10:44.834Z,13.00
2019-05-28T09:13:10.622Z,13.15
2019-05-28T09:15:36.455Z,13.31
2019-05-28T09:18:02.603Z,13.81
2019-05-28T09:20:28.543Z,13.93
2019-05-28T09:22:54.671Z,14.32
2019-05-28T09:25:20.831Z,14.69
2019-05-28T09:27:50.020Z,14.43
2019-05-28T09:30:16.125Z,14.25
2019-05-28T09:32:41.941Z,13.95
2019-05-28T09:35:08.134Z,13.89
2019-05-28T09:37:33.997Z,13.54
2019-05-28T09:39:59.995Z,13.57
2019-05-28T09:42:25.792Z,13.64
2019-05-28T09:44:51.594Z,13.67
2019-05-28T09:47:17.402Z,13.53
2019-05-28T09:49:43.198Z,13.72
2019-05-28T09:52:09.093Z,13.99
2019-05-28T09:54:34.900Z,14.22
2019-05-28T09:57:00.689Z,14.19
2019-05-28T09:59:40.636Z,14.11
2019-05-28T10:01:54.430Z,14.18
2019-05-28T10:04:20.236Z,14.32
2019-05-28T10:06:46.033Z,14.45
2019-05-28T10:09:11.852Z,14.59
2019-05-28T10:11:37.729Z,14.57
2019-05-28T10:14:03.495Z,14.57
2019-05-28T10:16:29.294Z,14.55
2019-05-28T10:18:55.086Z,14.60
2019-05-28T10:21:20.884Z,14.53
2019-05-28T10:23:46.685Z,14.74
2019-05-28T10:26:12.487Z,15.24
2019-05-28T10:28:38.285Z,15.43
2019-05-28T10:31:04.106Z,15.26
2019-05-28T10:33:29.953Z,14.88
2019-05-28T10:35:55.768Z,14.58
2019-05-28T10:38:21.560Z,14.29
2019-05-28T10:40:47.377Z,14.14
2019-05-28T10:43:13.185Z,14.19
2019-05-28T10:45:39.053Z,14.02
2019-05-28T10:48:04.808Z,14.04
2019-05-28T10:50:30.625Z,14.20
2019-05-28T10:52:56.512Z,14.20
2019-05-28T10:55:22.310Z,14.18
2019-05-28T10:57:48.106Z,13.89
2019-05-28T11:00:14.324Z,13.98
2019-05-28T11:02:40.134Z,14.37
2019-05-28T11:05:06.818Z,14.68
2019-05-28T11:07:32.623Z,14.95
2019-05-28T11:09:58.416Z,15.19
2019-05-28T11:12:24.218Z,15.64
2019-05-28T11:14:50.019Z,15.75
2019-05-28T11:17:15.837Z,15.42
2019-05-28T11:19:41.658Z,15.19
2019-05-28T11:22:07.566Z,14.89
2019-05-28T11:24:33.370Z,15.02
2019-05-28T11:26:59.179Z,14.91
2019-05-28T11:29:24.978Z,14.73
2019-05-28T11:31:50.776Z,14.91
2019-05-28T11:34:16.558Z,15.27
2019-05-28T11:36:42.406Z,15.59
2019-05-28T11:39:08.818Z,17.08
2019-05-28T11:41:42.169Z,17.78
2019-05-28T11:44:02.438Z,16.98
2019-05-28T11:46:28.230Z,16.96
2019-05-28T11:48:54.022Z,16.68
2019-05-28T11:51:19.916Z,16.14
2019-05-28T11:53:45.711Z,15.48
2019-05-28T11:56:11.507Z,15.09
2019-05-28T11:58:37.303Z,15.10
2019-05-28T12:01:03.115Z,15.26
2019-05-28T12:03:28.907Z,14.97
2019-05-28T12:05:54.705Z,14.76
2019-05-28T12:08:20.507Z,15.00
2019-05-28T12:10:46.313Z,15.06
2019-05-28T12:13:12.124Z,15.34
2019-05-28T12:15:37.912Z,15.60
2019-05-28T12:18:03.723Z,15.69
2019-05-28T12:20:30.448Z,16.54
2019-05-28T12:23:10.286Z,17.31
2019-05-28T12:25:24.231Z,17.48
2019-05-28T12:27:50.024Z,17.01
2019-05-28T12:30:18.435Z,16.53
2019-05-28T12:32:44.114Z,16.44
2019-05-28T12:35:26.318Z,16.05
2019-05-28T12:37:48.217Z,16.64
2019-05-28T12:40:07.253Z,17.52
2019-05-28T12:42:33.373Z,17.62
2019-05-28T12:45:09.413Z,18.00
2019-05-28T12:47:26.949Z,17.39
2019-05-28T12:49:52.734Z,17.30
2019-05-28T12:52:18.548Z,17.10
2019-05-28T12:54:44.349Z,16.60
2019-05-28T12:57:10.138Z,16.71
2019-05-28T12:59:35.954Z,17.36
2019-05-28T13:02:01.751Z,18.49
2019-05-28T13:04:27.549Z,18.89
2019-05-28T13:06:53.334Z,18.28
2019-05-28T13:09:19.133Z,17.47
2019-05-28T13:11:44.945Z,16.35
2019-05-28T13:14:10.757Z,15.64
2019-05-28T13:16:36.540Z,15.59
2019-05-28T13:19:02.435Z,15.54
2019-05-28T13:21:28.239Z,15.67
2019-05-28T13:23:54.233Z,15.76
2019-05-28T13:26:20.046Z,17.28
2019-05-28T13:28:45.840Z,17.21
2019-05-28T13:31:11.641Z,16.91
2019-05-28T13:33:37.429Z,16.50
2019-05-28T13:36:03.354Z,16.10
2019-05-28T13:38:29.168Z,15.71
2019-05-28T13:40:54.964Z,15.49
2019-05-28T13:43:20.771Z,15.10
2019-05-28T13:45:46.591Z,14.91
2019-05-28T13:48:12.408Z,15.13
2019-05-28T13:50:38.310Z,14.95
2019-05-28T13:53:04.119Z,15.21
2019-05-28T13:55:29.938Z,16.03
2019-05-28T13:57:55.734Z,17.07
2019-05-28T14:00:21.829Z,17.56
2019-05-28T14:02:47.614Z,17.62
2019-05-28T14:05:14.506Z,17.68
2019-05-28T14:07:40.314Z,16.77
2019-05-28T14:10:06.203Z,16.16
2019-05-28T14:12:32.001Z,15.52
2019-05-28T14:14:57.809Z,15.48
2019-05-28T14:17:23.611Z,16.14
2019-05-28T14:19:49.427Z,17.05
2019-05-28T14:22:30.862Z,17.62
2019-05-28T14:24:43.673Z,17.68
2019-05-28T14:27:09.493Z,17.69
2019-05-28T14:29:35.278Z,17.79
2019-05-28T14:32:01.085Z,18.32
2019-05-28T14:34:26.975Z,18.07
2019-05-28T14:36:53.005Z,17.38
2019-05-28T14:39:18.759Z,16.81
2019-05-28T14:41:44.553Z,16.70
2019-05-28T14:44:10.338Z,17.05
2019-05-28T14:46:36.127Z,17.31
2019-05-28T14:49:01.937Z,17.10
2019-05-28T14:51:27.722Z,16.45
2019-05-28T14:53:53.538Z,16.14
2019-05-28T14:56:19.324Z,16.41
2019-05-28T14:58:45.118Z,16.49
2019-05-28T15:01:10.912Z,16.37
2019-05-28T15:03:36.711Z,16.28
2019-05-28T15:06:02.720Z,16.30
2019-05-28T15:08:28.798Z,16.15
2019-05-28T15:10:54.573Z,15.86
2019-05-28T15:13:20.370Z,15.50
2019-05-28T15:15:46.155Z,15.53
2019-05-28T15:18:11.978Z,15.63
2019-05-28T15:20:37.779Z,15.24
2019-05-28T15:23:03.622Z,15.24
2019-05-28T15:25:29.411Z,15.51
2019-05-28T15:27:55.241Z,15.50
2019-05-28T15:30:21.419Z,15.52
2019-05-28T15:32:47.239Z,15.64
2019-05-28T15:35:13.223Z,15.62
2019-05-28T15:37:39.055Z,15.58
2019-05-28T15:40:05.832Z,15.35
2019-05-28T15:42:31.671Z,15.44
2019-05-28T15:44:57.465Z,15.68
2019-05-28T15:47:23.260Z,15.75
2019-05-28T15:49:49.067Z,15.70
2019-05-28T15:52:16.877Z,15.70
2019-05-28T15:54:42.682Z,15.97
2019-05-28T15:57:08.497Z,16.00
2019-05-28T15:59:34.295Z,15.99
2019-05-28T16:02:00.087Z,15.90
2019-05-28T16:04:25.883Z,15.58
2019-05-28T16:06:51.679Z,15.43
2019-05-28T16:09:17.482Z,15.51
2019-05-28T16:11:43.277Z,15.46
2019-05-28T16:14:09.065Z,15.58
2019-05-28T16:16:34.882Z,15.61
2019-05-28T16:19:00.685Z,15.83
2019-05-28T16:21:26.485Z,15.68
2019-05-28T16:23:52.296Z,15.53
2019-05-28T16:26:18.082Z,15.39
2019-05-28T16:28:43.895Z,15.43
2019-05-28T16:31:12.736Z,15.34
2019-05-28T16:33:38.456Z,15.28
2019-05-28T16:36:04.261Z,15.28
2019-05-28T16:38:30.090Z,15.19
2019-05-28T16:40:55.885Z,15.31
2019-05-28T16:43:21.688Z,15.12
2019-05-28T16:45:47.491Z,15.03
2019-05-28T16:48:13.298Z,15.23
2019-05-28T16:50:39.109Z,15.18
2019-05-28T16:53:05.216Z,15.03
2019-05-28T16:55:31.051Z,14.98
2019-05-28T16:57:56.824Z,14.94
2019-05-28T17:00:22.747Z,14.81
2019-05-28T17:02:48.521Z,14.73
2019-05-28T17:05:14.920Z,14.60
2019-05-28T17:07:40.717Z,14.58
2019-05-28T17:10:06.743Z,14.62
2019-05-28T17:12:32.541Z,14.68
2019-05-28T17:14:58.348Z,14.58
2019-05-28T17:17:24.161Z,14.48
2019-05-28T17:19:49.981Z,14.47
2019-05-28T17:22:15.768Z,14.28
2019-05-28T17:24:41.566Z,14.47
2019-05-28T17:27:07.387Z,14.27
2019-05-28T17:29:33.169Z,14.30
2019-05-28T17:31:58.986Z,14.18
2019-05-28T17:34:24.791Z,14.03
2019-05-28T17:36:50.593Z,13.94
2019-05-28T17:39:16.378Z,14.23
2019-05-28T17:41:42.173Z,14.20
2019-05-28T17:44:07.963Z,14.16
2019-05-28T17:46:33.774Z,14.11
2019-05-28T17:48:59.554Z,14.07
2019-05-28T17:51:25.370Z,13.99
2019-05-28T17:53:51.179Z,13.85
2019-05-28T17:56:16.978Z,13.68
2019-05-28T17:58:42.770Z,13.73
2019-05-28T18:01:08.577Z,13.40
2019-05-28T18:03:35.333Z,13.32
2019-05-28T18:06:01.383Z,13.33
2019-05-28T18:08:29.335Z,13.16
2019-05-28T18:11:03.620Z,13.10
2019-05-28T18:13:22.730Z,12.94
2019-05-28T18:15:48.710Z,12.94
2019-05-28T18:18:14.966Z,12.99
2019-05-28T18:20:40.760Z,12.97
2019-05-28T18:23:06.571Z,12.87
2019-05-28T18:25:32.407Z,12.80
2019-05-28T18:27:58.824Z,12.65
2019-05-28T18:30:24.812Z,12.53
2019-05-28T18:32:50.719Z,12.58
2019-05-28T18:35:18.707Z,12.51
2019-05-28T18:38:03.425Z,12.35
2019-05-28T18:40:26.721Z,12.31
2019-05-28T18:42:52.646Z,12.03
2019-05-28T18:45:18.886Z,12.03
2019-05-28T18:47:45.097Z,12.08
2019-05-28T18:50:11.955Z,12.16
2019-05-28T18:52:37.756Z,12.04
2019-05-28T18:55:05.617Z,12.03
2019-05-28T18:57:31.557Z,11.92
2019-05-28T18:59:57.346Z,11.86
2019-05-28T19:02:23.153Z,11.79
2019-05-28T19:04:48.944Z,11.72
2019-05-28T19:07:14.758Z,11.64
2019-05-28T19:09:40.979Z,11.64
2019-05-28T19:12:06.768Z,11.59
2019-05-28T19:14:32.572Z,11.51
2019-05-28T19:16:58.375Z,11.47
2019-05-28T19:19:24.178Z,11.41
2019-05-28T19:21:49.985Z,11.30
2019-05-28T19:24:16.559Z,11.25
2019-05-28T19:26:42.580Z,11.16
2019-05-28T19:29:08.417Z,11.12
2019-05-28T19:31:34.210Z,10.96
2019-05-28T19:34:00.026Z,10.90
2019-05-28T19:36:26.539Z,10.93
2019-05-28T19:38:53.043Z,10.91
2019-05-28T19:41:18.905Z,10.90
2019-05-28T19:43:44.711Z,10.83
2019-05-28T19:46:10.839Z,10.78
2019-05-28T19:48:36.685Z,10.71
2019-05-28T19:51:02.702Z,10.59
2019-05-28T19:53:28.513Z,10.55
2019-05-28T19:55:54.360Z,10.52
2019-05-28T19:58:20.336Z,10.39
2019-05-28T20:00:46.171Z,10.36
2019-05-28T20:03:12.344Z,10.36
2019-05-28T20:05:38.332Z,10.29
2019-05-28T20:08:04.235Z,10.25
2019-05-28T20:10:30.030Z,10.15
2019-05-28T20:12:55.839Z,10.09
2019-05-28T20:15:23.737Z,10.09
2019-05-28T20:17:50.306Z,10.03
2019-05-28T20:20:18.018Z,9.88
2019-05-28T20:22:43.828Z,9.88
2019-05-28T20:25:09.864Z,9.88
2019-05-28T20:27:35.657Z,9.84
2019-05-28T20:30:03.026Z,9.85
2019-05-28T20:32:28.965Z,9.75
2019-05-28T20:34:54.790Z,9.71
2019-05-28T20:37:20.603Z,9.63
2019-05-28T20:39:46.416Z,9.63
2019-05-28T20:42:26.083Z,9.53
2019-05-28T20:44:39.929Z,9.45
2019-05-28T20:47:06.958Z,9.45
2019-05-28T20:49:32.831Z,9.43
2019-05-28T20:51:58.619Z,9.44
2019-05-28T20:54:24.412Z,9.35
2019-05-28T20:56:51.942Z,9.36
2019-05-28T20:59:17.961Z,9.24
2019-05-28T21:01:43.758Z,9.24
2019-05-28T21:04:09.582Z,9.17
2019-05-28T21:06:35.375Z,9.18
2019-05-28T21:09:01.162Z,9.15
2019-05-28T21:11:26.961Z,9.10
2019-05-28T21:13:52.746Z,9.06
2019-05-28T21:16:18.542Z,8.97
2019-05-28T21:18:44.338Z,8.95
2019-05-28T21:21:10.180Z,8.85
2019-05-28T21:23:35.976Z,8.78
2019-05-28T21:26:01.802Z,8.79
2019-05-28T21:28:27.627Z,8.80
2019-05-28T21:30:54.602Z,8.77
2019-05-28T21:33:20.494Z,8.72
2019-05-28T21:35:46.302Z,8.71
2019-05-28T21:38:12.097Z,8.67
2019-05-28T21:40:37.892Z,8.65
2019-05-28T21:43:09.380Z,8.63
2019-05-28T21:45:31.385Z,8.54
2019-05-28T21:47:58.388Z,8.53
2019-05-28T21:50:24.412Z,8.45
2019-05-28T21:52:50.210Z,8.42
2019-05-28T21:55:16.094Z,8.36
2019-05-28T21:57:41.913Z,8.35
2019-05-28T22:00:19.146Z,8.25
2019-05-28T22:02:44.968Z,8.22
2019-05-28T22:05:12.655Z,8.14
2019-05-28T22:07:38.470Z,8.07
2019-05-28T22:10:05.357Z,8.07
2019-05-28T22:12:31.159Z,8.06
2019-05-28T22:14:57.965Z,8.02
2019-05-28T22:17:23.771Z,8.07
2019-05-28T22:19:49.579Z,8.07
2019-05-28T22:22:15.375Z,8.10
2019-05-28T22:24:41.174Z,8.13
2019-05-28T22:27:06.974Z,8.09
2019-05-28T22:29:32.780Z,7.98
2019-05-28T22:31:58.768Z,5.44
2019-05-28T22:34:24.575Z,7.86
2019-05-28T22:36:50.468Z,7.86
2019-05-28T22:39:16.271Z,7.82
2019-05-28T22:41:42.088Z,7.74
2019-05-28T22:44:08.079Z,7.73
2019-05-28T22:46:33.997Z,7.82
2019-05-28T22:48:59.795Z,7.74
2019-05-28T22:51:25.588Z,7.72
2019-05-28T22:53:51.391Z,7.79
2019-05-28T22:56:17.179Z,7.71
2019-05-28T22:58:43.007Z,7.64
2019-05-28T23:01:08.802Z,7.59
2019-05-28T23:03:34.609Z,7.53
2019-05-28T23:06:01.121Z,7.54
2019-05-28T23:08:26.900Z,7.50
2019-05-28T23:10:52.707Z,7.42
2019-05-28T23:13:18.538Z,7.33
2019-05-28T23:15:44.352Z,7.27
2019-05-28T23:18:11.020Z,7.20
2019-05-28T23:20:36.867Z,7.18
2019-05-28T23:23:03.235Z,7.15
2019-05-28T23:25:29.127Z,7.14
2019-05-28T23:27:54.911Z,7.06
2019-05-28T23:30:25.134Z,7.06
2019-05-28T23:32:48.714Z,7.02
2019-05-28T23:35:14.614Z,7.04
2019-05-28T23:37:40.401Z,6.98
2019-05-28T23:40:07.144Z,6.96
2019-05-28T23:42:32.918Z,7.02
2019-05-28T23:44:58.746Z,7.01
2019-05-28T23:47:24.554Z,6.92
2019-05-28T23:49:50.374Z,6.90
2019-05-28T23:52:17.042Z,6.87
2019-05-28T23:54:42.861Z,6.81
2019-05-28T23:57:09.820Z,6.74
2019-05-28T23:59:35.663Z,6.67
